sensor_id;sensor_type;location;lat;lon;timestamp;P1;durP1;ratioP1;P2;durP2;ratioP2
66175;SDS011;52977;44.816;20.538;2023-04-24T00:00:31;10.20;;;4.18;;
66175;SDS011;52977;44.816;20.538;2023-04-24T00:02:58;6.78;;;3.65;;
66175;SDS011;52977;44.816;20.538;2023-04-24T00:05:24;7.25;;;4.20;;
66175;SDS011;52977;44.816;20.538;2023-04-24T00:07:51;7.97;;;4.20;;
66175;SDS011;52977;44.816;20.538;2023-04-24T00:10:21;11.07;;;4.60;;
66175;SDS011;52977;44.816;20.538;2023-04-24T00:12:47;7.88;;;3.60;;
66175;SDS011;52977;44.816;20.538;2023-04-24T00:15:14;6.85;;;3.63;;
66175;SDS011;52977;44.816;20.538;2023-04-24T00:17:40;8.13;;;3.35;;
66175;SDS011;52977;44.816;20.538;2023-04-24T00:20:06;9.15;;;3.97;;
66175;SDS011;52977;44.816;20.538;2023-04-24T00:22:33;5.88;;;3.65;;
66175;SDS011;52977;44.816;20.538;2023-04-24T00:24:59;9.43;;;3.97;;
66175;SDS011;52977;44.816;20.538;2023-04-24T00:27:25;7.95;;;4.15;;
66175;SDS011;52977;44.816;20.538;2023-04-24T00:29:52;9.02;;;4.15;;
66175;SDS011;52977;44.816;20.538;2023-04-24T00:32:18;5.88;;;3.50;;
66175;SDS011;52977;44.816;20.538;2023-04-24T00:34:45;6.75;;;3.75;;
66175;SDS011;52977;44.816;20.538;2023-04-24T00:37:11;8.93;;;4.07;;
66175;SDS011;52977;44.816;20.538;2023-04-24T00:39:37;7.78;;;3.50;;
66175;SDS011;52977;44.816;20.538;2023-04-24T00:42:03;7.03;;;3.88;;
66175;SDS011;52977;44.816;20.538;2023-04-24T00:44:35;5.65;;;3.58;;
66175;SDS011;52977;44.816;20.538;2023-04-24T00:47:01;7.82;;;3.72;;
66175;SDS011;52977;44.816;20.538;2023-04-24T00:49:27;5.82;;;3.70;;
66175;SDS011;52977;44.816;20.538;2023-04-24T00:51:53;10.85;;;4.82;;
66175;SDS011;52977;44.816;20.538;2023-04-24T00:54:20;8.93;;;4.78;;
66175;SDS011;52977;44.816;20.538;2023-04-24T00:56:46;8.65;;;4.75;;
66175;SDS011;52977;44.816;20.538;2023-04-24T00:59:14;10.20;;;5.35;;
66175;SDS011;52977;44.816;20.538;2023-04-24T01:01:43;9.23;;;5.05;;
66175;SDS011;52977;44.816;20.538;2023-04-24T01:04:11;9.65;;;5.07;;
66175;SDS011;52977;44.816;20.538;2023-04-24T01:06:38;9.90;;;4.63;;
66175;SDS011;52977;44.816;20.538;2023-04-24T01:09:05;7.78;;;4.40;;
66175;SDS011;52977;44.816;20.538;2023-04-24T01:11:36;8.77;;;4.90;;
66175;SDS011;52977;44.816;20.538;2023-04-24T01:14:04;11.65;;;4.70;;
66175;SDS011;52977;44.816;20.538;2023-04-24T01:16:30;9.82;;;4.50;;
66175;SDS011;52977;44.816;20.538;2023-04-24T01:18:56;6.15;;;4.20;;
66175;SDS011;52977;44.816;20.538;2023-04-24T01:21:22;9.18;;;4.40;;
66175;SDS011;52977;44.816;20.538;2023-04-24T01:23:51;12.13;;;4.65;;
66175;SDS011;52977;44.816;20.538;2023-04-24T01:26:18;7.78;;;4.55;;
66175;SDS011;52977;44.816;20.538;2023-04-24T01:28:46;8.48;;;4.43;;
66175;SDS011;52977;44.816;20.538;2023-04-24T01:31:13;7.97;;;4.55;;
66175;SDS011;52977;44.816;20.538;2023-04-24T01:33:41;10.02;;;4.53;;
66175;SDS011;52977;44.816;20.538;2023-04-24T01:36:09;6.63;;;4.22;;
66175;SDS011;52977;44.816;20.538;2023-04-24T01:38:37;7.93;;;4.47;;
66175;SDS011;52977;44.816;20.538;2023-04-24T01:41:03;9.23;;;4.32;;
66175;SDS011;52977;44.816;20.538;2023-04-24T01:43:29;10.90;;;4.45;;
66175;SDS011;52977;44.816;20.538;2023-04-24T01:45:57;11.82;;;4.55;;
66175;SDS011;52977;44.816;20.538;2023-04-24T01:48:22;8.32;;;4.50;;
66175;SDS011;52977;44.816;20.538;2023-04-24T01:50:48;9.85;;;4.65;;
66175;SDS011;52977;44.816;20.538;2023-04-24T01:53:14;9.68;;;4.55;;
66175;SDS011;52977;44.816;20.538;2023-04-24T01:55:41;8.23;;;4.32;;
66175;SDS011;52977;44.816;20.538;2023-04-24T01:58:06;8.90;;;4.82;;
66175;SDS011;52977;44.816;20.538;2023-04-24T02:00:33;8.30;;;4.72;;
66175;SDS011;52977;44.816;20.538;2023-04-24T02:02:58;9.38;;;4.63;;
66175;SDS011;52977;44.816;20.538;2023-04-24T02:05:25;8.35;;;5.00;;
66175;SDS011;52977;44.816;20.538;2023-04-24T02:07:51;10.63;;;4.57;;
66175;SDS011;52977;44.816;20.538;2023-04-24T02:10:17;7.90;;;4.35;;
66175;SDS011;52977;44.816;20.538;2023-04-24T02:12:43;9.88;;;4.47;;
66175;SDS011;52977;44.816;20.538;2023-04-24T02:15:10;10.48;;;5.03;;
66175;SDS011;52977;44.816;20.538;2023-04-24T02:17:38;9.32;;;4.35;;
66175;SDS011;52977;44.816;20.538;2023-04-24T02:20:07;9.90;;;4.50;;
66175;SDS011;52977;44.816;20.538;2023-04-24T02:22:34;9.27;;;4.60;;
66175;SDS011;52977;44.816;20.538;2023-04-24T02:25:00;8.30;;;4.07;;
66175;SDS011;52977;44.816;20.538;2023-04-24T02:27:27;8.77;;;5.07;;
66175;SDS011;52977;44.816;20.538;2023-04-24T02:29:54;10.30;;;4.75;;
66175;SDS011;52977;44.816;20.538;2023-04-24T02:32:21;8.70;;;4.40;;
66175;SDS011;52977;44.816;20.538;2023-04-24T02:34:47;10.57;;;4.65;;
66175;SDS011;52977;44.816;20.538;2023-04-24T02:37:13;7.65;;;4.22;;
66175;SDS011;52977;44.816;20.538;2023-04-24T02:39:41;8.10;;;4.40;;
66175;SDS011;52977;44.816;20.538;2023-04-24T02:42:08;7.10;;;4.28;;
66175;SDS011;52977;44.816;20.538;2023-04-24T02:44:35;8.60;;;5.05;;
66175;SDS011;52977;44.816;20.538;2023-04-24T02:47:01;6.97;;;4.10;;
66175;SDS011;52977;44.816;20.538;2023-04-24T02:49:27;7.53;;;4.70;;
66175;SDS011;52977;44.816;20.538;2023-04-24T02:51:53;11.40;;;4.25;;
66175;SDS011;52977;44.816;20.538;2023-04-24T02:54:19;10.32;;;4.85;;
66175;SDS011;52977;44.816;20.538;2023-04-24T02:56:46;9.02;;;4.60;;
66175;SDS011;52977;44.816;20.538;2023-04-24T02:59:12;12.02;;;4.30;;
66175;SDS011;52977;44.816;20.538;2023-04-24T03:01:38;12.88;;;4.82;;
66175;SDS011;52977;44.816;20.538;2023-04-24T03:04:04;10.80;;;4.60;;
66175;SDS011;52977;44.816;20.538;2023-04-24T03:06:30;9.60;;;5.20;;
66175;SDS011;52977;44.816;20.538;2023-04-24T03:08:58;9.07;;;4.65;;
66175;SDS011;52977;44.816;20.538;2023-04-24T03:11:24;8.18;;;4.35;;
66175;SDS011;52977;44.816;20.538;2023-04-24T03:13:50;9.68;;;4.22;;
66175;SDS011;52977;44.816;20.538;2023-04-24T03:16:16;6.93;;;4.32;;
66175;SDS011;52977;44.816;20.538;2023-04-24T03:18:43;9.50;;;4.60;;
66175;SDS011;52977;44.816;20.538;2023-04-24T03:21:09;9.27;;;4.70;;
66175;SDS011;52977;44.816;20.538;2023-04-24T03:23:35;8.45;;;4.70;;
66175;SDS011;52977;44.816;20.538;2023-04-24T03:26:01;8.50;;;4.30;;
66175;SDS011;52977;44.816;20.538;2023-04-24T03:28:29;9.32;;;4.68;;
66175;SDS011;52977;44.816;20.538;2023-04-24T03:31:02;8.68;;;4.60;;
66175;SDS011;52977;44.816;20.538;2023-04-24T03:36:00;11.52;;;4.53;;
66175;SDS011;52977;44.816;20.538;2023-04-24T03:38:39;9.10;;;4.00;;
66175;SDS011;52977;44.816;20.538;2023-04-24T03:41:38;6.20;;;4.20;;
66175;SDS011;52977;44.816;20.538;2023-04-24T03:44:11;8.55;;;4.40;;
66175;SDS011;52977;44.816;20.538;2023-04-24T03:46:37;6.63;;;4.03;;
66175;SDS011;52977;44.816;20.538;2023-04-24T03:49:03;8.98;;;4.38;;
66175;SDS011;52977;44.816;20.538;2023-04-24T03:51:34;6.75;;;4.35;;
66175;SDS011;52977;44.816;20.538;2023-04-24T03:54:24;10.45;;;4.40;;
66175;SDS011;52977;44.816;20.538;2023-04-24T03:56:51;9.35;;;4.38;;
66175;SDS011;52977;44.816;20.538;2023-04-24T03:59:18;9.63;;;4.43;;
66175;SDS011;52977;44.816;20.538;2023-04-24T04:04:16;9.48;;;3.67;;
66175;SDS011;52977;44.816;20.538;2023-04-24T04:06:43;9.63;;;4.35;;
66175;SDS011;52977;44.816;20.538;2023-04-24T04:09:10;6.93;;;4.25;;
66175;SDS011;52977;44.816;20.538;2023-04-24T04:11:36;13.63;;;5.05;;
66175;SDS011;52977;44.816;20.538;2023-04-24T04:14:02;9.10;;;4.50;;
66175;SDS011;52977;44.816;20.538;2023-04-24T04:16:30;6.75;;;4.35;;
66175;SDS011;52977;44.816;20.538;2023-04-24T04:19:02;7.70;;;4.68;;
66175;SDS011;52977;44.816;20.538;2023-04-24T04:21:29;8.98;;;4.28;;
66175;SDS011;52977;44.816;20.538;2023-04-24T04:24:08;7.28;;;4.25;;
66175;SDS011;52977;44.816;20.538;2023-04-24T04:26:38;8.35;;;4.25;;
66175;SDS011;52977;44.816;20.538;2023-04-24T04:29:07;10.52;;;4.55;;
66175;SDS011;52977;44.816;20.538;2023-04-24T04:31:36;9.00;;;4.82;;
66175;SDS011;52977;44.816;20.538;2023-04-24T04:34:07;10.50;;;4.75;;
66175;SDS011;52977;44.816;20.538;2023-04-24T04:36:33;9.02;;;4.60;;
66175;SDS011;52977;44.816;20.538;2023-04-24T04:39:10;11.25;;;4.93;;
66175;SDS011;52977;44.816;20.538;2023-04-24T04:41:52;7.65;;;3.85;;
66175;SDS011;52977;44.816;20.538;2023-04-24T04:44:20;10.88;;;4.75;;
66175;SDS011;52977;44.816;20.538;2023-04-24T04:46:46;10.15;;;4.53;;
66175;SDS011;52977;44.816;20.538;2023-04-24T04:49:21;10.57;;;5.30;;
66175;SDS011;52977;44.816;20.538;2023-04-24T04:51:49;9.50;;;4.90;;
66175;SDS011;52977;44.816;20.538;2023-04-24T04:54:17;9.18;;;4.72;;
66175;SDS011;52977;44.816;20.538;2023-04-24T04:56:43;11.40;;;5.20;;
66175;SDS011;52977;44.816;20.538;2023-04-24T04:59:08;13.88;;;5.25;;
66175;SDS011;52977;44.816;20.538;2023-04-24T05:01:37;13.50;;;5.80;;
66175;SDS011;52977;44.816;20.538;2023-04-24T05:04:05;11.88;;;5.40;;
66175;SDS011;52977;44.816;20.538;2023-04-24T05:06:31;15.57;;;6.05;;
66175;SDS011;52977;44.816;20.538;2023-04-24T05:08:58;12.15;;;5.20;;
66175;SDS011;52977;44.816;20.538;2023-04-24T05:11:34;10.45;;;5.03;;
66175;SDS011;52977;44.816;20.538;2023-04-24T05:14:01;10.98;;;4.95;;
66175;SDS011;52977;44.816;20.538;2023-04-24T05:16:36;9.18;;;4.75;;
66175;SDS011;52977;44.816;20.538;2023-04-24T05:19:04;12.65;;;5.60;;
66175;SDS011;52977;44.816;20.538;2023-04-24T05:21:35;8.50;;;5.05;;
66175;SDS011;52977;44.816;20.538;2023-04-24T05:24:01;10.55;;;5.32;;
66175;SDS011;52977;44.816;20.538;2023-04-24T05:26:51;10.80;;;4.90;;
66175;SDS011;52977;44.816;20.538;2023-04-24T05:29:22;12.30;;;4.78;;
66175;SDS011;52977;44.816;20.538;2023-04-24T05:31:48;9.52;;;4.95;;
66175;SDS011;52977;44.816;20.538;2023-04-24T05:34:15;13.05;;;5.05;;
66175;SDS011;52977;44.816;20.538;2023-04-24T05:36:44;8.38;;;4.80;;
66175;SDS011;52977;44.816;20.538;2023-04-24T05:39:10;12.05;;;5.18;;
66175;SDS011;52977;44.816;20.538;2023-04-24T05:41:36;9.57;;;5.10;;
66175;SDS011;52977;44.816;20.538;2023-04-24T05:44:02;12.50;;;4.65;;
66175;SDS011;52977;44.816;20.538;2023-04-24T05:46:27;14.02;;;6.45;;
66175;SDS011;52977;44.816;20.538;2023-04-24T05:48:55;14.15;;;5.72;;
66175;SDS011;52977;44.816;20.538;2023-04-24T05:51:20;15.75;;;6.30;;
66175;SDS011;52977;44.816;20.538;2023-04-24T05:53:46;10.73;;;5.15;;
66175;SDS011;52977;44.816;20.538;2023-04-24T05:56:12;10.65;;;5.45;;
66175;SDS011;52977;44.816;20.538;2023-04-24T05:58:37;9.18;;;5.15;;
66175;SDS011;52977;44.816;20.538;2023-04-24T06:01:04;10.63;;;5.60;;
66175;SDS011;52977;44.816;20.538;2023-04-24T06:03:31;9.77;;;5.13;;
66175;SDS011;52977;44.816;20.538;2023-04-24T06:05:57;9.80;;;4.82;;
66175;SDS011;52977;44.816;20.538;2023-04-24T06:08:24;9.75;;;5.20;;
66175;SDS011;52977;44.816;20.538;2023-04-24T06:10:51;11.45;;;5.15;;
66175;SDS011;52977;44.816;20.538;2023-04-24T06:13:19;10.10;;;4.97;;
66175;SDS011;52977;44.816;20.538;2023-04-24T06:16:08;9.57;;;5.30;;
66175;SDS011;52977;44.816;20.538;2023-04-24T06:18:39;12.07;;;5.78;;
66175;SDS011;52977;44.816;20.538;2023-04-24T06:21:05;21.92;;;8.23;;
66175;SDS011;52977;44.816;20.538;2023-04-24T06:23:31;14.68;;;6.93;;
66175;SDS011;52977;44.816;20.538;2023-04-24T06:25:58;11.85;;;5.97;;
66175;SDS011;52977;44.816;20.538;2023-04-24T06:28:24;8.57;;;5.40;;
66175;SDS011;52977;44.816;20.538;2023-04-24T06:30:51;8.23;;;4.68;;
66175;SDS011;52977;44.816;20.538;2023-04-24T06:33:17;15.02;;;7.38;;
66175;SDS011;52977;44.816;20.538;2023-04-24T06:35:43;33.75;;;13.60;;
66175;SDS011;52977;44.816;20.538;2023-04-24T06:38:09;35.38;;;13.35;;
66175;SDS011;52977;44.816;20.538;2023-04-24T06:40:35;20.17;;;8.80;;
66175;SDS011;52977;44.816;20.538;2023-04-24T06:43:01;13.70;;;6.88;;
66175;SDS011;52977;44.816;20.538;2023-04-24T06:45:28;10.73;;;5.80;;
66175;SDS011;52977;44.816;20.538;2023-04-24T06:47:55;9.55;;;5.63;;
66175;SDS011;52977;44.816;20.538;2023-04-24T06:50:22;12.75;;;5.60;;
66175;SDS011;52977;44.816;20.538;2023-04-24T06:52:48;10.15;;;5.18;;
66175;SDS011;52977;44.816;20.538;2023-04-24T06:55:14;9.98;;;5.18;;
66175;SDS011;52977;44.816;20.538;2023-04-24T06:57:42;10.35;;;5.40;;
66175;SDS011;52977;44.816;20.538;2023-04-24T07:00:09;9.50;;;5.35;;
66175;SDS011;52977;44.816;20.538;2023-04-24T07:02:35;12.40;;;5.78;;
66175;SDS011;52977;44.816;20.538;2023-04-24T07:05:03;10.32;;;6.30;;
66175;SDS011;52977;44.816;20.538;2023-04-24T07:07:30;12.98;;;6.45;;
66175;SDS011;52977;44.816;20.538;2023-04-24T07:09:57;13.32;;;6.32;;
66175;SDS011;52977;44.816;20.538;2023-04-24T07:12:23;14.00;;;7.05;;
66175;SDS011;52977;44.816;20.538;2023-04-24T07:14:50;10.88;;;6.25;;
66175;SDS011;52977;44.816;20.538;2023-04-24T07:17:16;11.95;;;6.75;;
66175;SDS011;52977;44.816;20.538;2023-04-24T07:19:42;10.45;;;5.80;;
66175;SDS011;52977;44.816;20.538;2023-04-24T07:22:08;12.25;;;6.20;;
66175;SDS011;52977;44.816;20.538;2023-04-24T07:24:37;11.48;;;5.90;;
66175;SDS011;52977;44.816;20.538;2023-04-24T07:27:02;14.45;;;5.90;;
66175;SDS011;52977;44.816;20.538;2023-04-24T07:29:30;11.98;;;6.28;;
66175;SDS011;52977;44.816;20.538;2023-04-24T07:31:56;12.75;;;5.65;;
66175;SDS011;52977;44.816;20.538;2023-04-24T07:34:22;12.25;;;6.13;;
66175;SDS011;52977;44.816;20.538;2023-04-24T07:36:48;12.50;;;6.60;;
66175;SDS011;52977;44.816;20.538;2023-04-24T07:39:14;12.63;;;6.47;;
66175;SDS011;52977;44.816;20.538;2023-04-24T07:41:40;14.77;;;6.32;;
66175;SDS011;52977;44.816;20.538;2023-04-24T07:44:06;10.85;;;6.15;;
66175;SDS011;52977;44.816;20.538;2023-04-24T07:46:32;10.13;;;6.03;;
66175;SDS011;52977;44.816;20.538;2023-04-24T07:48:58;11.65;;;6.10;;
66175;SDS011;52977;44.816;20.538;2023-04-24T07:51:26;10.73;;;6.18;;
66175;SDS011;52977;44.816;20.538;2023-04-24T07:53:54;19.02;;;5.93;;
66175;SDS011;52977;44.816;20.538;2023-04-24T07:56:23;9.98;;;5.65;;
66175;SDS011;52977;44.816;20.538;2023-04-24T07:58:49;9.70;;;6.00;;
66175;SDS011;52977;44.816;20.538;2023-04-24T08:01:16;11.27;;;5.55;;
66175;SDS011;52977;44.816;20.538;2023-04-24T08:03:42;10.40;;;6.13;;
66175;SDS011;52977;44.816;20.538;2023-04-24T08:06:08;10.55;;;5.82;;
66175;SDS011;52977;44.816;20.538;2023-04-24T08:08:34;11.10;;;5.72;;
66175;SDS011;52977;44.816;20.538;2023-04-24T08:11:00;11.85;;;6.50;;
66175;SDS011;52977;44.816;20.538;2023-04-24T08:13:26;13.13;;;6.35;;
66175;SDS011;52977;44.816;20.538;2023-04-24T08:15:53;12.10;;;6.10;;
66175;SDS011;52977;44.816;20.538;2023-04-24T08:18:19;11.00;;;5.68;;
66175;SDS011;52977;44.816;20.538;2023-04-24T08:20:44;9.88;;;5.82;;
66175;SDS011;52977;44.816;20.538;2023-04-24T08:23:11;11.90;;;6.80;;
66175;SDS011;52977;44.816;20.538;2023-04-24T08:25:37;11.63;;;6.18;;
66175;SDS011;52977;44.816;20.538;2023-04-24T08:28:05;13.43;;;6.65;;
66175;SDS011;52977;44.816;20.538;2023-04-24T08:30:34;17.17;;;7.22;;
66175;SDS011;52977;44.816;20.538;2023-04-24T08:33:00;11.13;;;6.25;;
66175;SDS011;52977;44.816;20.538;2023-04-24T08:35:26;15.88;;;7.35;;
66175;SDS011;52977;44.816;20.538;2023-04-24T08:37:52;14.85;;;6.93;;
66175;SDS011;52977;44.816;20.538;2023-04-24T08:40:20;17.05;;;6.75;;
66175;SDS011;52977;44.816;20.538;2023-04-24T08:42:54;10.85;;;6.35;;
66175;SDS011;52977;44.816;20.538;2023-04-24T08:45:40;11.65;;;5.97;;
66175;SDS011;52977;44.816;20.538;2023-04-24T08:48:07;12.57;;;7.10;;
66175;SDS011;52977;44.816;20.538;2023-04-24T08:50:33;15.93;;;6.53;;
66175;SDS011;52977;44.816;20.538;2023-04-24T08:53:00;12.80;;;6.75;;
66175;SDS011;52977;44.816;20.538;2023-04-24T08:55:26;12.20;;;6.30;;
66175;SDS011;52977;44.816;20.538;2023-04-24T08:57:55;13.30;;;6.45;;
66175;SDS011;52977;44.816;20.538;2023-04-24T09:00:23;10.18;;;6.07;;
66175;SDS011;52977;44.816;20.538;2023-04-24T09:02:49;10.73;;;6.00;;
66175;SDS011;52977;44.816;20.538;2023-04-24T09:05:16;12.43;;;6.65;;
66175;SDS011;52977;44.816;20.538;2023-04-24T09:07:44;10.77;;;6.63;;
66175;SDS011;52977;44.816;20.538;2023-04-24T09:10:13;16.73;;;6.43;;
66175;SDS011;52977;44.816;20.538;2023-04-24T09:12:41;13.95;;;6.63;;
66175;SDS011;52977;44.816;20.538;2023-04-24T09:15:07;13.00;;;6.93;;
66175;SDS011;52977;44.816;20.538;2023-04-24T09:17:34;11.38;;;5.63;;
66175;SDS011;52977;44.816;20.538;2023-04-24T09:20:01;11.10;;;5.95;;
66175;SDS011;52977;44.816;20.538;2023-04-24T09:22:30;12.20;;;7.20;;
66175;SDS011;52977;44.816;20.538;2023-04-24T09:25:06;9.60;;;6.05;;
66175;SDS011;52977;44.816;20.538;2023-04-24T09:27:34;12.52;;;6.65;;
66175;SDS011;52977;44.816;20.538;2023-04-24T09:30:01;10.45;;;5.80;;
66175;SDS011;52977;44.816;20.538;2023-04-24T09:32:29;13.07;;;6.30;;
66175;SDS011;52977;44.816;20.538;2023-04-24T09:35:13;13.18;;;6.88;;
66175;SDS011;52977;44.816;20.538;2023-04-24T09:37:41;12.88;;;6.95;;
66175;SDS011;52977;44.816;20.538;2023-04-24T09:40:19;13.32;;;6.78;;
66175;SDS011;52977;44.816;20.538;2023-04-24T09:42:57;13.60;;;6.18;;
66175;SDS011;52977;44.816;20.538;2023-04-24T09:45:36;11.52;;;6.70;;
66175;SDS011;52977;44.816;20.538;2023-04-24T09:48:04;11.35;;;6.00;;
66175;SDS011;52977;44.816;20.538;2023-04-24T09:50:32;14.40;;;7.00;;
66175;SDS011;52977;44.816;20.538;2023-04-24T09:53:03;10.93;;;6.35;;
66175;SDS011;52977;44.816;20.538;2023-04-24T09:57:59;12.77;;;6.75;;
66175;SDS011;52977;44.816;20.538;2023-04-24T10:02:54;12.75;;;7.15;;
66175;SDS011;52977;44.816;20.538;2023-04-24T10:05:26;15.15;;;7.32;;
66175;SDS011;52977;44.816;20.538;2023-04-24T10:07:58;13.73;;;7.75;;
66175;SDS011;52977;44.816;20.538;2023-04-24T10:10:37;11.80;;;7.00;;
66175;SDS011;52977;44.816;20.538;2023-04-24T10:13:05;12.70;;;6.72;;
66175;SDS011;52977;44.816;20.538;2023-04-24T10:15:33;10.93;;;6.57;;
66175;SDS011;52977;44.816;20.538;2023-04-24T10:17:59;15.35;;;6.90;;
66175;SDS011;52977;44.816;20.538;2023-04-24T10:20:27;12.75;;;6.43;;
66175;SDS011;52977;44.816;20.538;2023-04-24T10:22:55;14.85;;;6.65;;
66175;SDS011;52977;44.816;20.538;2023-04-24T10:25:23;13.48;;;7.03;;
66175;SDS011;52977;44.816;20.538;2023-04-24T10:27:51;13.57;;;6.10;;
66175;SDS011;52977;44.816;20.538;2023-04-24T10:30:19;14.70;;;6.45;;
66175;SDS011;52977;44.816;20.538;2023-04-24T10:32:46;20.08;;;7.43;;
66175;SDS011;52977;44.816;20.538;2023-04-24T10:35:12;16.23;;;7.13;;
66175;SDS011;52977;44.816;20.538;2023-04-24T10:37:41;28.63;;;8.77;;
66175;SDS011;52977;44.816;20.538;2023-04-24T10:40:10;16.23;;;7.40;;
66175;SDS011;52977;44.816;20.538;2023-04-24T10:42:39;14.57;;;6.60;;
66175;SDS011;52977;44.816;20.538;2023-04-24T10:47:41;12.48;;;7.38;;
66175;SDS011;52977;44.816;20.538;2023-04-24T10:50:09;15.50;;;6.85;;
66175;SDS011;52977;44.816;20.538;2023-04-24T10:52:48;16.77;;;6.80;;
66175;SDS011;52977;44.816;20.538;2023-04-24T10:58:06;15.32;;;8.10;;
66175;SDS011;52977;44.816;20.538;2023-04-24T11:00:33;15.68;;;7.35;;
66175;SDS011;52977;44.816;20.538;2023-04-24T11:03:08;12.52;;;7.53;;
66175;SDS011;52977;44.816;20.538;2023-04-24T11:05:56;14.45;;;6.88;;
66175;SDS011;52977;44.816;20.538;2023-04-24T11:08:27;15.25;;;8.30;;
66175;SDS011;52977;44.816;20.538;2023-04-24T11:11:03;15.63;;;7.68;;
66175;SDS011;52977;44.816;20.538;2023-04-24T11:16:21;18.90;;;8.60;;
66175;SDS011;52977;44.816;20.538;2023-04-24T11:21:45;19.10;;;8.27;;
66175;SDS011;52977;44.816;20.538;2023-04-24T11:29:43;13.63;;;8.02;;
66175;SDS011;52977;44.816;20.538;2023-04-24T11:32:17;15.35;;;8.80;;
66175;SDS011;52977;44.816;20.538;2023-04-24T11:37:11;11.85;;;7.15;;
66175;SDS011;52977;44.816;20.538;2023-04-24T11:39:38;16.08;;;7.25;;
66175;SDS011;52977;44.816;20.538;2023-04-24T11:42:04;19.23;;;8.85;;
66175;SDS011;52977;44.816;20.538;2023-04-24T11:44:33;12.90;;;7.90;;
66175;SDS011;52977;44.816;20.538;2023-04-24T11:47:00;13.00;;;7.22;;
66175;SDS011;52977;44.816;20.538;2023-04-24T11:49:26;16.10;;;8.32;;
66175;SDS011;52977;44.816;20.538;2023-04-24T11:51:55;12.43;;;7.80;;
66175;SDS011;52977;44.816;20.538;2023-04-24T11:54:22;14.05;;;7.20;;
66175;SDS011;52977;44.816;20.538;2023-04-24T11:56:49;16.27;;;8.23;;
66175;SDS011;52977;44.816;20.538;2023-04-24T11:59:15;13.90;;;7.35;;
66175;SDS011;52977;44.816;20.538;2023-04-24T12:01:48;14.50;;;6.10;;
66175;SDS011;52977;44.816;20.538;2023-04-24T12:04:16;11.45;;;5.75;;
66175;SDS011;52977;44.816;20.538;2023-04-24T12:07:02;14.57;;;7.57;;
66175;SDS011;52977;44.816;20.538;2023-04-24T12:09:29;12.05;;;7.07;;
66175;SDS011;52977;44.816;20.538;2023-04-24T12:12:13;13.93;;;5.80;;
66175;SDS011;52977;44.816;20.538;2023-04-24T12:14:52;10.88;;;5.80;;
66175;SDS011;52977;44.816;20.538;2023-04-24T12:17:23;10.68;;;6.50;;
66175;SDS011;52977;44.816;20.538;2023-04-24T12:20:01;14.65;;;7.68;;
66175;SDS011;52977;44.816;20.538;2023-04-24T12:22:42;13.20;;;7.55;;
66175;SDS011;52977;44.816;20.538;2023-04-24T12:25:10;11.93;;;6.95;;
66175;SDS011;52977;44.816;20.538;2023-04-24T12:27:36;14.63;;;7.80;;
66175;SDS011;52977;44.816;20.538;2023-04-24T12:30:03;13.55;;;7.53;;
66175;SDS011;52977;44.816;20.538;2023-04-24T12:32:31;15.23;;;8.55;;
66175;SDS011;52977;44.816;20.538;2023-04-24T12:34:57;17.50;;;9.38;;
66175;SDS011;52977;44.816;20.538;2023-04-24T12:37:24;15.55;;;8.95;;
66175;SDS011;52977;44.816;20.538;2023-04-24T12:42:34;13.70;;;8.32;;
66175;SDS011;52977;44.816;20.538;2023-04-24T12:45:01;16.58;;;8.65;;
66175;SDS011;52977;44.816;20.538;2023-04-24T12:47:30;13.48;;;7.90;;
66175;SDS011;52977;44.816;20.538;2023-04-24T12:49:57;15.13;;;7.88;;
66175;SDS011;52977;44.816;20.538;2023-04-24T12:52:23;14.90;;;8.02;;
66175;SDS011;52977;44.816;20.538;2023-04-24T12:54:52;13.68;;;8.45;;
66175;SDS011;52977;44.816;20.538;2023-04-24T12:57:21;18.20;;;7.97;;
66175;SDS011;52977;44.816;20.538;2023-04-24T12:59:47;14.00;;;7.70;;
66175;SDS011;52977;44.816;20.538;2023-04-24T13:02:13;14.55;;;8.13;;
66175;SDS011;52977;44.816;20.538;2023-04-24T13:04:39;12.55;;;7.43;;
66175;SDS011;52977;44.816;20.538;2023-04-24T13:07:06;16.25;;;8.07;;
66175;SDS011;52977;44.816;20.538;2023-04-24T13:09:33;13.80;;;7.70;;
66175;SDS011;52977;44.816;20.538;2023-04-24T13:12:00;14.10;;;8.05;;
66175;SDS011;52977;44.816;20.538;2023-04-24T13:14:27;15.85;;;8.13;;
66175;SDS011;52977;44.816;20.538;2023-04-24T13:16:53;15.20;;;7.63;;
66175;SDS011;52977;44.816;20.538;2023-04-24T13:19:19;12.80;;;6.47;;
66175;SDS011;52977;44.816;20.538;2023-04-24T13:21:45;12.25;;;7.10;;
66175;SDS011;52977;44.816;20.538;2023-04-24T13:24:11;12.85;;;6.63;;
66175;SDS011;52977;44.816;20.538;2023-04-24T13:26:38;11.35;;;7.20;;
66175;SDS011;52977;44.816;20.538;2023-04-24T13:29:04;12.15;;;6.68;;
66175;SDS011;52977;44.816;20.538;2023-04-24T13:31:30;11.75;;;6.45;;
66175;SDS011;52977;44.816;20.538;2023-04-24T13:33:55;12.00;;;7.05;;
66175;SDS011;52977;44.816;20.538;2023-04-24T13:36:21;11.07;;;7.10;;
66175;SDS011;52977;44.816;20.538;2023-04-24T13:38:48;13.02;;;6.88;;
66175;SDS011;52977;44.816;20.538;2023-04-24T13:41:14;13.60;;;6.63;;
66175;SDS011;52977;44.816;20.538;2023-04-24T13:43:40;13.35;;;6.82;;
66175;SDS011;52977;44.816;20.538;2023-04-24T13:46:08;12.40;;;7.80;;
66175;SDS011;52977;44.816;20.538;2023-04-24T13:48:34;9.63;;;5.93;;
66175;SDS011;52977;44.816;20.538;2023-04-24T13:51:00;12.10;;;7.20;;
66175;SDS011;52977;44.816;20.538;2023-04-24T13:53:26;12.68;;;7.65;;
66175;SDS011;52977;44.816;20.538;2023-04-24T13:55:52;12.25;;;7.00;;
66175;SDS011;52977;44.816;20.538;2023-04-24T13:58:19;10.18;;;5.18;;
66175;SDS011;52977;44.816;20.538;2023-04-24T14:00:45;9.15;;;5.50;;
66175;SDS011;52977;44.816;20.538;2023-04-24T14:03:11;10.95;;;6.30;;
66175;SDS011;52977;44.816;20.538;2023-04-24T14:05:37;13.02;;;6.55;;
66175;SDS011;52977;44.816;20.538;2023-04-24T14:08:03;11.02;;;5.88;;
66175;SDS011;52977;44.816;20.538;2023-04-24T14:10:30;12.90;;;6.10;;
66175;SDS011;52977;44.816;20.538;2023-04-24T14:12:56;10.10;;;5.30;;
66175;SDS011;52977;44.816;20.538;2023-04-24T14:15:22;9.43;;;5.35;;
66175;SDS011;52977;44.816;20.538;2023-04-24T14:17:48;8.98;;;5.07;;
66175;SDS011;52977;44.816;20.538;2023-04-24T14:20:15;9.98;;;4.97;;
66175;SDS011;52977;44.816;20.538;2023-04-24T14:22:41;9.68;;;5.15;;
66175;SDS011;52977;44.816;20.538;2023-04-24T14:25:08;9.25;;;4.45;;
66175;SDS011;52977;44.816;20.538;2023-04-24T14:27:34;9.30;;;4.38;;
66175;SDS011;52977;44.816;20.538;2023-04-24T14:30:00;7.30;;;4.70;;
66175;SDS011;52977;44.816;20.538;2023-04-24T14:32:27;7.50;;;4.45;;
66175;SDS011;52977;44.816;20.538;2023-04-24T14:34:53;7.47;;;4.40;;
66175;SDS011;52977;44.816;20.538;2023-04-24T14:37:20;8.52;;;4.78;;
66175;SDS011;52977;44.816;20.538;2023-04-24T14:39:46;10.07;;;4.97;;
66175;SDS011;52977;44.816;20.538;2023-04-24T14:42:11;8.73;;;4.15;;
66175;SDS011;52977;44.816;20.538;2023-04-24T14:44:37;7.55;;;4.47;;
66175;SDS011;52977;44.816;20.538;2023-04-24T14:47:04;7.25;;;3.60;;
66175;SDS011;52977;44.816;20.538;2023-04-24T14:49:30;11.52;;;3.88;;
66175;SDS011;52977;44.816;20.538;2023-04-24T14:51:56;10.60;;;3.85;;
66175;SDS011;52977;44.816;20.538;2023-04-24T14:54:22;8.85;;;3.88;;
66175;SDS011;52977;44.816;20.538;2023-04-24T14:56:49;9.02;;;3.85;;
66175;SDS011;52977;44.816;20.538;2023-04-24T14:59:16;5.80;;;3.15;;
66175;SDS011;52977;44.816;20.538;2023-04-24T15:01:42;6.43;;;3.63;;